Columbia, California
Current Conditions -  °F | °C
As of 2:15 PM on Wednesday 28 Jan 2015 (Local Time) from KO22 Reporting Station
Clear Clear  
Wind Chill: 63°   Ceiling: Unl
Heat Index: 63°   Visibility: 10mi
Dew Point: 48°   Wind: 6mph
Humidity: 59%   Direction: 210°SSW
Pressure: 30.17"   Gusts: NA
Location:  38.03°N, 120.4°W
Report Text: KO22 282215Z AUTO 21005KT 10SM CLR 17/09 A3017 RMK AO1
Loading
Personal Weather Stations






























Interactive Weather Map New forecast layout! Learn more

10-Day Weather Forecast

Advertisements
Track Severe Weather on mobile